sensor_id;sensor_type;location;lat;lon;timestamp;P1;durP1;ratioP1;P2;durP2;ratioP2
46765;SDS011;32527;51.986;5.842;2023-02-08T00:06:48;26.95;;;12.77;;
46765;SDS011;32527;51.986;5.842;2023-02-08T00:09:14;24.65;;;11.65;;
46765;SDS011;32527;51.986;5.842;2023-02-08T00:11:40;25.30;;;12.00;;
46765;SDS011;32527;51.986;5.842;2023-02-08T00:14:06;21.58;;;12.82;;
46765;SDS011;32527;51.986;5.842;2023-02-08T00:16:33;21.65;;;11.20;;
46765;SDS011;32527;51.986;5.842;2023-02-08T00:18:59;21.92;;;11.88;;
46765;SDS011;32527;51.986;5.842;2023-02-08T00:21:25;21.38;;;11.48;;
46765;SDS011;32527;51.986;5.842;2023-02-08T00:23:51;25.23;;;12.02;;
46765;SDS011;32527;51.986;5.842;2023-02-08T00:26:17;19.75;;;10.93;;
46765;SDS011;32527;51.986;5.842;2023-02-08T00:28:44;22.25;;;11.68;;
46765;SDS011;32527;51.986;5.842;2023-02-08T00:31:10;20.77;;;11.25;;
46765;SDS011;32527;51.986;5.842;2023-02-08T00:33:36;20.67;;;11.23;;
46765;SDS011;32527;51.986;5.842;2023-02-08T00:36:03;19.98;;;10.63;;
46765;SDS011;32527;51.986;5.842;2023-02-08T00:38:30;25.25;;;11.63;;
46765;SDS011;32527;51.986;5.842;2023-02-08T00:40:56;24.70;;;11.48;;
46765;SDS011;32527;51.986;5.842;2023-02-08T00:43:23;20.75;;;11.05;;
46765;SDS011;32527;51.986;5.842;2023-02-08T00:45:55;17.88;;;10.63;;
46765;SDS011;32527;51.986;5.842;2023-02-08T00:48:23;22.38;;;12.32;;
46765;SDS011;32527;51.986;5.842;2023-02-08T00:50:56;21.63;;;12.73;;
46765;SDS011;32527;51.986;5.842;2023-02-08T00:53:34;23.85;;;10.55;;
46765;SDS011;32527;51.986;5.842;2023-02-08T00:56:00;21.80;;;11.13;;
46765;SDS011;32527;51.986;5.842;2023-02-08T00:58:26;22.90;;;11.55;;
46765;SDS011;32527;51.986;5.842;2023-02-08T01:00:53;20.90;;;10.52;;
46765;SDS011;32527;51.986;5.842;2023-02-08T01:03:20;20.70;;;10.95;;
46765;SDS011;32527;51.986;5.842;2023-02-08T01:05:46;20.50;;;11.88;;
46765;SDS011;32527;51.986;5.842;2023-02-08T01:08:12;23.77;;;11.80;;
46765;SDS011;32527;51.986;5.842;2023-02-08T01:10:38;21.73;;;12.52;;
46765;SDS011;32527;51.986;5.842;2023-02-08T01:13:04;19.23;;;11.40;;
46765;SDS011;32527;51.986;5.842;2023-02-08T01:15:30;19.27;;;10.85;;
46765;SDS011;32527;51.986;5.842;2023-02-08T01:17:56;20.67;;;12.18;;
46765;SDS011;32527;51.986;5.842;2023-02-08T01:20:23;18.70;;;11.63;;
46765;SDS011;32527;51.986;5.842;2023-02-08T01:22:49;24.60;;;10.98;;
46765;SDS011;32527;51.986;5.842;2023-02-08T01:25:15;19.08;;;10.75;;
46765;SDS011;32527;51.986;5.842;2023-02-08T01:27:41;20.40;;;11.60;;
46765;SDS011;32527;51.986;5.842;2023-02-08T01:30:08;20.13;;;12.15;;
46765;SDS011;32527;51.986;5.842;2023-02-08T01:32:34;22.65;;;11.38;;
46765;SDS011;32527;51.986;5.842;2023-02-08T01:35:00;17.92;;;10.80;;
46765;SDS011;32527;51.986;5.842;2023-02-08T01:37:26;20.20;;;11.75;;
46765;SDS011;32527;51.986;5.842;2023-02-08T01:39:52;23.98;;;12.35;;
46765;SDS011;32527;51.986;5.842;2023-02-08T01:42:19;20.63;;;12.05;;
46765;SDS011;32527;51.986;5.842;2023-02-08T01:47:36;22.27;;;12.15;;
46765;SDS011;32527;51.986;5.842;2023-02-08T01:50:03;21.40;;;11.13;;
46765;SDS011;32527;51.986;5.842;2023-02-08T01:52:29;21.25;;;12.48;;
46765;SDS011;32527;51.986;5.842;2023-02-08T01:54:57;22.20;;;12.85;;
46765;SDS011;32527;51.986;5.842;2023-02-08T01:57:29;23.95;;;11.88;;
46765;SDS011;32527;51.986;5.842;2023-02-08T01:59:56;18.20;;;11.23;;
46765;SDS011;32527;51.986;5.842;2023-02-08T02:02:25;19.65;;;11.85;;
46765;SDS011;32527;51.986;5.842;2023-02-08T02:04:52;20.95;;;11.13;;
46765;SDS011;32527;51.986;5.842;2023-02-08T02:07:19;23.50;;;12.63;;
46765;SDS011;32527;51.986;5.842;2023-02-08T02:09:47;20.95;;;12.45;;
46765;SDS011;32527;51.986;5.842;2023-02-08T02:12:18;22.27;;;12.52;;
46765;SDS011;32527;51.986;5.842;2023-02-08T02:14:45;21.05;;;11.82;;
46765;SDS011;32527;51.986;5.842;2023-02-08T02:17:11;20.85;;;11.98;;
46765;SDS011;32527;51.986;5.842;2023-02-08T02:35:44;24.30;;;13.00;;
46765;SDS011;32527;51.986;5.842;2023-02-08T02:38:48;22.80;;;11.60;;
46765;SDS011;32527;51.986;5.842;2023-02-08T02:41:27;24.27;;;11.52;;
46765;SDS011;32527;51.986;5.842;2023-02-08T02:44:41;22.88;;;11.23;;
46765;SDS011;32527;51.986;5.842;2023-02-08T02:47:44;22.33;;;12.35;;
46765;SDS011;32527;51.986;5.842;2023-02-08T02:50:22;20.23;;;11.48;;
46765;SDS011;32527;51.986;5.842;2023-02-08T02:52:50;20.52;;;11.23;;
46765;SDS011;32527;51.986;5.842;2023-02-08T02:55:20;22.80;;;12.20;;
46765;SDS011;32527;51.986;5.842;2023-02-08T02:57:49;23.23;;;12.63;;
46765;SDS011;32527;51.986;5.842;2023-02-08T03:00:19;21.38;;;11.80;;
46765;SDS011;32527;51.986;5.842;2023-02-08T03:02:47;23.13;;;12.52;;
46765;SDS011;32527;51.986;5.842;2023-02-08T03:05:13;25.05;;;11.90;;
46765;SDS011;32527;51.986;5.842;2023-02-08T03:07:42;23.45;;;12.23;;
46765;SDS011;32527;51.986;5.842;2023-02-08T03:12:57;23.80;;;12.05;;
46765;SDS011;32527;51.986;5.842;2023-02-08T03:18:17;25.70;;;11.43;;
46765;SDS011;32527;51.986;5.842;2023-02-08T03:23:37;21.55;;;11.32;;
46765;SDS011;32527;51.986;5.842;2023-02-08T03:28:42;24.27;;;12.50;;
46765;SDS011;32527;51.986;5.842;2023-02-08T03:31:22;22.90;;;12.95;;
46765;SDS011;32527;51.986;5.842;2023-02-08T03:34:18;26.88;;;12.57;;
46765;SDS011;32527;51.986;5.842;2023-02-08T03:37:19;24.67;;;12.93;;
46765;SDS011;32527;51.986;5.842;2023-02-08T03:39:52;21.55;;;12.68;;
46765;SDS011;32527;51.986;5.842;2023-02-08T03:42:24;21.52;;;12.25;;
46765;SDS011;32527;51.986;5.842;2023-02-08T03:44:53;24.52;;;11.65;;
46765;SDS011;32527;51.986;5.842;2023-02-08T03:47:32;23.17;;;11.18;;
46765;SDS011;32527;51.986;5.842;2023-02-08T03:50:02;19.95;;;11.50;;
46765;SDS011;32527;51.986;5.842;2023-02-08T03:52:32;25.48;;;12.10;;
46765;SDS011;32527;51.986;5.842;2023-02-08T03:55:01;22.45;;;11.68;;
46765;SDS011;32527;51.986;5.842;2023-02-08T03:57:34;24.10;;;11.88;;
46765;SDS011;32527;51.986;5.842;2023-02-08T04:00:12;22.00;;;12.13;;
46765;SDS011;32527;51.986;5.842;2023-02-08T04:05:29;19.70;;;10.95;;
46765;SDS011;32527;51.986;5.842;2023-02-08T04:07:55;21.05;;;12.23;;
46765;SDS011;32527;51.986;5.842;2023-02-08T04:10:21;25.25;;;12.18;;
46765;SDS011;32527;51.986;5.842;2023-02-08T04:12:47;22.38;;;11.93;;
46765;SDS011;32527;51.986;5.842;2023-02-08T04:15:13;25.88;;;12.48;;
46765;SDS011;32527;51.986;5.842;2023-02-08T04:17:40;23.58;;;12.27;;
46765;SDS011;32527;51.986;5.842;2023-02-08T04:20:06;19.70;;;11.98;;
46765;SDS011;32527;51.986;5.842;2023-02-08T04:22:32;23.08;;;11.40;;
46765;SDS011;32527;51.986;5.842;2023-02-08T04:24:58;21.83;;;12.52;;
46765;SDS011;32527;51.986;5.842;2023-02-08T04:27:24;20.85;;;11.77;;
46765;SDS011;32527;51.986;5.842;2023-02-08T04:29:50;21.30;;;12.52;;
46765;SDS011;32527;51.986;5.842;2023-02-08T04:32:16;24.20;;;12.30;;
46765;SDS011;32527;51.986;5.842;2023-02-08T04:34:42;24.65;;;11.45;;
46765;SDS011;32527;51.986;5.842;2023-02-08T04:37:09;19.73;;;11.60;;
46765;SDS011;32527;51.986;5.842;2023-02-08T04:39:36;21.52;;;11.85;;
46765;SDS011;32527;51.986;5.842;2023-02-08T04:42:02;25.05;;;12.95;;
46765;SDS011;32527;51.986;5.842;2023-02-08T04:44:27;22.40;;;11.55;;
46765;SDS011;32527;51.986;5.842;2023-02-08T04:46:56;23.98;;;11.27;;
46765;SDS011;32527;51.986;5.842;2023-02-08T04:49:22;23.25;;;12.35;;
46765;SDS011;32527;51.986;5.842;2023-02-08T04:51:48;22.65;;;12.10;;
46765;SDS011;32527;51.986;5.842;2023-02-08T04:54:14;20.60;;;11.75;;
46765;SDS011;32527;51.986;5.842;2023-02-08T04:56:40;20.13;;;10.60;;
46765;SDS011;32527;51.986;5.842;2023-02-08T04:59:07;22.67;;;11.18;;
46765;SDS011;32527;51.986;5.842;2023-02-08T05:01:32;20.52;;;11.10;;
46765;SDS011;32527;51.986;5.842;2023-02-08T05:03:58;20.98;;;11.10;;
46765;SDS011;32527;51.986;5.842;2023-02-08T05:06:24;25.52;;;12.10;;
46765;SDS011;32527;51.986;5.842;2023-02-08T05:08:50;22.88;;;11.65;;
46765;SDS011;32527;51.986;5.842;2023-02-08T05:11:20;25.17;;;13.05;;
46765;SDS011;32527;51.986;5.842;2023-02-08T05:13:47;25.77;;;12.82;;
46765;SDS011;32527;51.986;5.842;2023-02-08T05:16:14;23.38;;;11.40;;
46765;SDS011;32527;51.986;5.842;2023-02-08T05:18:40;21.63;;;11.48;;
46765;SDS011;32527;51.986;5.842;2023-02-08T05:21:06;22.27;;;10.55;;
46765;SDS011;32527;51.986;5.842;2023-02-08T05:23:32;19.85;;;11.25;;
46765;SDS011;32527;51.986;5.842;2023-02-08T05:25:59;20.33;;;11.07;;
46765;SDS011;32527;51.986;5.842;2023-02-08T05:28:25;20.38;;;11.27;;
46765;SDS011;32527;51.986;5.842;2023-02-08T05:30:51;20.42;;;11.68;;
46765;SDS011;32527;51.986;5.842;2023-02-08T05:33:17;19.52;;;10.85;;
46765;SDS011;32527;51.986;5.842;2023-02-08T05:35:43;21.15;;;11.27;;
46765;SDS011;32527;51.986;5.842;2023-02-08T05:38:09;19.45;;;10.77;;
46765;SDS011;32527;51.986;5.842;2023-02-08T05:40:35;23.35;;;10.82;;
46765;SDS011;32527;51.986;5.842;2023-02-08T05:43:01;26.77;;;11.25;;
46765;SDS011;32527;51.986;5.842;2023-02-08T05:45:27;22.85;;;12.23;;
46765;SDS011;32527;51.986;5.842;2023-02-08T05:47:53;23.17;;;10.52;;
46765;SDS011;32527;51.986;5.842;2023-02-08T05:50:19;22.23;;;10.98;;
46765;SDS011;32527;51.986;5.842;2023-02-08T05:52:49;23.80;;;11.60;;
46765;SDS011;32527;51.986;5.842;2023-02-08T05:55:15;24.08;;;12.10;;
46765;SDS011;32527;51.986;5.842;2023-02-08T05:57:41;19.70;;;11.45;;
46765;SDS011;32527;51.986;5.842;2023-02-08T06:00:07;24.33;;;12.32;;
46765;SDS011;32527;51.986;5.842;2023-02-08T06:02:41;24.30;;;12.73;;
46765;SDS011;32527;51.986;5.842;2023-02-08T06:05:07;20.77;;;11.43;;
46765;SDS011;32527;51.986;5.842;2023-02-08T06:07:32;23.98;;;10.80;;
46765;SDS011;32527;51.986;5.842;2023-02-08T06:09:58;23.70;;;12.18;;
46765;SDS011;32527;51.986;5.842;2023-02-08T06:12:24;21.33;;;11.75;;
46765;SDS011;32527;51.986;5.842;2023-02-08T06:14:50;27.13;;;13.23;;
46765;SDS011;32527;51.986;5.842;2023-02-08T06:17:16;25.20;;;12.63;;
46765;SDS011;32527;51.986;5.842;2023-02-08T06:19:42;27.48;;;13.35;;
46765;SDS011;32527;51.986;5.842;2023-02-08T06:22:08;21.23;;;12.10;;
46765;SDS011;32527;51.986;5.842;2023-02-08T06:24:34;21.65;;;12.02;;
46765;SDS011;32527;51.986;5.842;2023-02-08T06:27:00;29.30;;;13.23;;
46765;SDS011;32527;51.986;5.842;2023-02-08T06:29:26;23.33;;;12.68;;
46765;SDS011;32527;51.986;5.842;2023-02-08T06:31:52;32.92;;;12.75;;
46765;SDS011;32527;51.986;5.842;2023-02-08T06:34:18;23.27;;;13.25;;
46765;SDS011;32527;51.986;5.842;2023-02-08T06:36:44;25.30;;;14.30;;
46765;SDS011;32527;51.986;5.842;2023-02-08T06:39:10;29.25;;;14.85;;
46765;SDS011;32527;51.986;5.842;2023-02-08T06:41:36;30.85;;;13.73;;
46765;SDS011;32527;51.986;5.842;2023-02-08T06:44:02;27.08;;;13.50;;
46765;SDS011;32527;51.986;5.842;2023-02-08T06:46:28;22.17;;;13.07;;
46765;SDS011;32527;51.986;5.842;2023-02-08T06:48:54;25.15;;;13.30;;
46765;SDS011;32527;51.986;5.842;2023-02-08T06:51:22;28.15;;;13.82;;
46765;SDS011;32527;51.986;5.842;2023-02-08T06:53:48;24.05;;;13.63;;
46765;SDS011;32527;51.986;5.842;2023-02-08T06:56:14;26.73;;;14.65;;
46765;SDS011;32527;51.986;5.842;2023-02-08T06:58:40;24.58;;;11.93;;
46765;SDS011;32527;51.986;5.842;2023-02-08T07:01:10;29.58;;;14.52;;
46765;SDS011;32527;51.986;5.842;2023-02-08T07:03:36;28.20;;;14.30;;
46765;SDS011;32527;51.986;5.842;2023-02-08T07:06:02;25.98;;;13.65;;
46765;SDS011;32527;51.986;5.842;2023-02-08T07:08:28;27.30;;;13.88;;
46765;SDS011;32527;51.986;5.842;2023-02-08T07:10:54;24.90;;;15.18;;
46765;SDS011;32527;51.986;5.842;2023-02-08T07:13:20;27.02;;;14.55;;
46765;SDS011;32527;51.986;5.842;2023-02-08T07:15:46;32.22;;;13.82;;
46765;SDS011;32527;51.986;5.842;2023-02-08T07:18:12;23.98;;;13.23;;
46765;SDS011;32527;51.986;5.842;2023-02-08T07:20:39;25.33;;;14.10;;
46765;SDS011;32527;51.986;5.842;2023-02-08T07:23:05;23.70;;;13.05;;
46765;SDS011;32527;51.986;5.842;2023-02-08T07:25:31;23.65;;;13.15;;
46765;SDS011;32527;51.986;5.842;2023-02-08T07:27:57;29.85;;;14.38;;
46765;SDS011;32527;51.986;5.842;2023-02-08T07:30:23;29.60;;;13.10;;
46765;SDS011;32527;51.986;5.842;2023-02-08T07:32:49;24.35;;;13.30;;
46765;SDS011;32527;51.986;5.842;2023-02-08T07:35:15;29.98;;;14.38;;
46765;SDS011;32527;51.986;5.842;2023-02-08T07:37:41;26.33;;;14.00;;
46765;SDS011;32527;51.986;5.842;2023-02-08T07:40:07;24.63;;;12.27;;
46765;SDS011;32527;51.986;5.842;2023-02-08T07:42:33;26.33;;;13.00;;
46765;SDS011;32527;51.986;5.842;2023-02-08T07:45:10;27.45;;;14.35;;
46765;SDS011;32527;51.986;5.842;2023-02-08T07:47:36;27.38;;;14.35;;
46765;SDS011;32527;51.986;5.842;2023-02-08T07:50:02;24.45;;;13.55;;
46765;SDS011;32527;51.986;5.842;2023-02-08T07:52:28;23.60;;;13.88;;
46765;SDS011;32527;51.986;5.842;2023-02-08T07:54:54;22.58;;;14.38;;
46765;SDS011;32527;51.986;5.842;2023-02-08T07:57:20;26.00;;;12.90;;
46765;SDS011;32527;51.986;5.842;2023-02-08T07:59:46;21.10;;;12.40;;
46765;SDS011;32527;51.986;5.842;2023-02-08T08:02:15;19.33;;;12.35;;
46765;SDS011;32527;51.986;5.842;2023-02-08T08:04:41;22.48;;;11.85;;
46765;SDS011;32527;51.986;5.842;2023-02-08T08:07:07;24.13;;;13.32;;
46765;SDS011;32527;51.986;5.842;2023-02-08T08:09:33;22.15;;;11.85;;
46765;SDS011;32527;51.986;5.842;2023-02-08T08:11:59;22.85;;;12.13;;
46765;SDS011;32527;51.986;5.842;2023-02-08T08:14:26;24.58;;;12.55;;
46765;SDS011;32527;51.986;5.842;2023-02-08T08:16:51;20.17;;;11.95;;
46765;SDS011;32527;51.986;5.842;2023-02-08T08:19:17;22.25;;;11.77;;
46765;SDS011;32527;51.986;5.842;2023-02-08T08:21:43;21.85;;;11.90;;
46765;SDS011;32527;51.986;5.842;2023-02-08T08:24:09;19.70;;;11.13;;
46765;SDS011;32527;51.986;5.842;2023-02-08T08:26:35;27.60;;;13.40;;
46765;SDS011;32527;51.986;5.842;2023-02-08T08:29:02;22.67;;;11.50;;
46765;SDS011;32527;51.986;5.842;2023-02-08T08:31:28;20.15;;;11.43;;
46765;SDS011;32527;51.986;5.842;2023-02-08T08:33:54;22.83;;;12.27;;
46765;SDS011;32527;51.986;5.842;2023-02-08T08:36:20;19.45;;;10.70;;
46765;SDS011;32527;51.986;5.842;2023-02-08T08:38:46;21.73;;;11.77;;
46765;SDS011;32527;51.986;5.842;2023-02-08T08:41:14;20.05;;;10.57;;
46765;SDS011;32527;51.986;5.842;2023-02-08T08:43:41;19.67;;;10.60;;
46765;SDS011;32527;51.986;5.842;2023-02-08T08:46:08;19.80;;;11.50;;
46765;SDS011;32527;51.986;5.842;2023-02-08T08:48:35;24.55;;;11.73;;
46765;SDS011;32527;51.986;5.842;2023-02-08T08:51:03;20.13;;;10.95;;
46765;SDS011;32527;51.986;5.842;2023-02-08T08:53:29;21.77;;;10.80;;
46765;SDS011;32527;51.986;5.842;2023-02-08T08:55:55;21.13;;;11.32;;
46765;SDS011;32527;51.986;5.842;2023-02-08T08:58:21;22.55;;;11.32;;
46765;SDS011;32527;51.986;5.842;2023-02-08T09:00:50;20.73;;;11.75;;
46765;SDS011;32527;51.986;5.842;2023-02-08T09:03:16;19.33;;;10.82;;
46765;SDS011;32527;51.986;5.842;2023-02-08T09:13:36;17.60;;;9.82;;
46765;SDS011;32527;51.986;5.842;2023-02-08T09:16:12;17.60;;;8.98;;
46765;SDS011;32527;51.986;5.842;2023-02-08T09:18:40;16.73;;;9.82;;
46765;SDS011;32527;51.986;5.842;2023-02-08T09:21:08;17.20;;;10.00;;
46765;SDS011;32527;51.986;5.842;2023-02-08T09:23:35;21.80;;;10.55;;
46765;SDS011;32527;51.986;5.842;2023-02-08T09:26:02;16.35;;;9.52;;
46765;SDS011;32527;51.986;5.842;2023-02-08T09:28:28;21.63;;;10.13;;
46765;SDS011;32527;51.986;5.842;2023-02-08T09:30:54;19.17;;;10.98;;
46765;SDS011;32527;51.986;5.842;2023-02-08T09:33:20;17.25;;;9.75;;
46765;SDS011;32527;51.986;5.842;2023-02-08T09:35:46;18.45;;;9.45;;
46765;SDS011;32527;51.986;5.842;2023-02-08T09:38:12;23.05;;;9.45;;
46765;SDS011;32527;51.986;5.842;2023-02-08T09:40:46;18.90;;;10.18;;
46765;SDS011;32527;51.986;5.842;2023-02-08T09:43:21;17.63;;;10.00;;
46765;SDS011;32527;51.986;5.842;2023-02-08T09:48:41;16.67;;;8.43;;
46765;SDS011;32527;51.986;5.842;2023-02-08T09:53:47;17.35;;;8.95;;
46765;SDS011;32527;51.986;5.842;2023-02-08T09:56:31;15.98;;;8.07;;
46765;SDS011;32527;51.986;5.842;2023-02-08T09:59:04;13.73;;;8.73;;
46765;SDS011;32527;51.986;5.842;2023-02-08T10:01:36;15.90;;;9.27;;
46765;SDS011;32527;51.986;5.842;2023-02-08T10:04:23;15.93;;;8.80;;
46765;SDS011;32527;51.986;5.842;2023-02-08T10:06:54;14.82;;;8.15;;
46765;SDS011;32527;51.986;5.842;2023-02-08T10:09:21;15.85;;;8.80;;
46765;SDS011;32527;51.986;5.842;2023-02-08T10:17:48;13.70;;;8.10;;
46765;SDS011;32527;51.986;5.842;2023-02-08T10:26:12;12.85;;;7.75;;
46765;SDS011;32527;51.986;5.842;2023-02-08T10:28:49;15.13;;;8.23;;
46765;SDS011;32527;51.986;5.842;2023-02-08T10:36:53;14.52;;;7.70;;
46765;SDS011;32527;51.986;5.842;2023-02-08T10:39:28;18.98;;;9.02;;
46765;SDS011;32527;51.986;5.842;2023-02-08T10:41:56;13.68;;;7.90;;
46765;SDS011;32527;51.986;5.842;2023-02-08T10:47:04;16.42;;;9.32;;
46765;SDS011;32527;51.986;5.842;2023-02-08T10:49:47;17.70;;;9.27;;
46765;SDS011;32527;51.986;5.842;2023-02-08T10:52:26;17.95;;;7.32;;
46765;SDS011;32527;51.986;5.842;2023-02-08T10:54:53;15.18;;;7.25;;
46765;SDS011;32527;51.986;5.842;2023-02-08T10:57:26;13.90;;;7.68;;
46765;SDS011;32527;51.986;5.842;2023-02-08T10:59:58;14.73;;;7.65;;
46765;SDS011;32527;51.986;5.842;2023-02-08T11:02:32;13.30;;;7.03;;
46765;SDS011;32527;51.986;5.842;2023-02-08T11:05:04;18.42;;;8.05;;
46765;SDS011;32527;51.986;5.842;2023-02-08T11:07:32;12.95;;;7.22;;
46765;SDS011;32527;51.986;5.842;2023-02-08T11:12:55;15.70;;;7.93;;
46765;SDS011;32527;51.986;5.842;2023-02-08T11:18:27;15.27;;;6.75;;
46765;SDS011;32527;51.986;5.842;2023-02-08T11:21:22;12.57;;;7.38;;
46765;SDS011;32527;51.986;5.842;2023-02-08T11:23:53;11.57;;;6.80;;
46765;SDS011;32527;51.986;5.842;2023-02-08T11:26:33;16.80;;;7.63;;
46765;SDS011;32527;51.986;5.842;2023-02-08T11:31:54;12.65;;;6.20;;
46765;SDS011;32527;51.986;5.842;2023-02-08T11:34:26;11.75;;;7.65;;
46765;SDS011;32527;51.986;5.842;2023-02-08T11:37:04;17.15;;;7.07;;
46765;SDS011;32527;51.986;5.842;2023-02-08T11:39:41;14.48;;;6.53;;
46765;SDS011;32527;51.986;5.842;2023-02-08T11:42:21;12.32;;;7.00;;
46765;SDS011;32527;51.986;5.842;2023-02-08T11:44:58;11.48;;;6.00;;
46765;SDS011;32527;51.986;5.842;2023-02-08T11:47:25;11.18;;;6.45;;
46765;SDS011;32527;51.986;5.842;2023-02-08T11:50:00;11.50;;;6.25;;
46765;SDS011;32527;51.986;5.842;2023-02-08T11:52:31;13.88;;;6.63;;
46765;SDS011;32527;51.986;5.842;2023-02-08T11:55:18;12.02;;;6.93;;
46765;SDS011;32527;51.986;5.842;2023-02-08T12:00:30;13.00;;;6.50;;
46765;SDS011;32527;51.986;5.842;2023-02-08T12:03:24;12.80;;;5.88;;
46765;SDS011;32527;51.986;5.842;2023-02-08T12:08:49;10.45;;;5.80;;
46765;SDS011;32527;51.986;5.842;2023-02-08T12:16:34;12.27;;;6.35;;
46765;SDS011;32527;51.986;5.842;2023-02-08T12:21:56;9.77;;;5.60;;
46765;SDS011;32527;51.986;5.842;2023-02-08T12:27:19;14.02;;;6.35;;
46765;SDS011;32527;51.986;5.842;2023-02-08T12:30:09;9.20;;;5.30;;
46765;SDS011;32527;51.986;5.842;2023-02-08T12:38:08;11.02;;;5.50;;
46765;SDS011;32527;51.986;5.842;2023-02-08T12:41:20;14.02;;;5.55;;
46765;SDS011;32527;51.986;5.842;2023-02-08T12:44:06;11.95;;;5.35;;
46765;SDS011;32527;51.986;5.842;2023-02-08T12:47:06;9.10;;;5.40;;
46765;SDS011;32527;51.986;5.842;2023-02-08T12:50:13;7.60;;;4.60;;
46765;SDS011;32527;51.986;5.842;2023-02-08T12:52:49;7.80;;;4.13;;
46765;SDS011;32527;51.986;5.842;2023-02-08T12:55:29;18.90;;;5.47;;
46765;SDS011;32527;51.986;5.842;2023-02-08T12:58:05;7.93;;;4.47;;
46765;SDS011;32527;51.986;5.842;2023-02-08T13:00:50;8.98;;;5.00;;
46765;SDS011;32527;51.986;5.842;2023-02-08T13:03:31;8.73;;;4.88;;
46765;SDS011;32527;51.986;5.842;2023-02-08T13:05:58;13.52;;;5.38;;
46765;SDS011;32527;51.986;5.842;2023-02-08T13:08:44;11.95;;;5.15;;
46765;SDS011;32527;51.986;5.842;2023-02-08T13:11:19;8.15;;;4.80;;
46765;SDS011;32527;51.986;5.842;2023-02-08T13:13:56;10.18;;;5.38;;
46765;SDS011;32527;51.986;5.842;2023-02-08T13:16:27;9.05;;;4.70;;
46765;SDS011;32527;51.986;5.842;2023-02-08T13:21:55;9.55;;;5.18;;
46765;SDS011;32527;51.986;5.842;2023-02-08T13:24:40;8.50;;;4.43;;
46765;SDS011;32527;51.986;5.842;2023-02-08T13:27:15;11.68;;;5.47;;
46765;SDS011;32527;51.986;5.842;2023-02-08T13:29:43;8.60;;;4.85;;
46765;SDS011;32527;51.986;5.842;2023-02-08T13:35:04;8.20;;;4.50;;
46765;SDS011;32527;51.986;5.842;2023-02-08T13:37:37;9.43;;;4.80;;
46765;SDS011;32527;51.986;5.842;2023-02-08T13:40:05;7.78;;;4.63;;
46765;SDS011;32527;51.986;5.842;2023-02-08T13:42:39;6.93;;;4.10;;
46765;SDS011;32527;51.986;5.842;2023-02-08T13:45:08;6.55;;;4.05;;
46765;SDS011;32527;51.986;5.842;2023-02-08T13:47:46;6.80;;;4.20;;
46765;SDS011;32527;51.986;5.842;2023-02-08T13:53:03;8.43;;;4.65;;
46765;SDS011;32527;51.986;5.842;2023-02-08T14:00:58;7.32;;;4.15;;
46765;SDS011;32527;51.986;5.842;2023-02-08T14:03:31;10.63;;;4.55;;
46765;SDS011;32527;51.986;5.842;2023-02-08T14:06:17;10.68;;;4.47;;
46765;SDS011;32527;51.986;5.842;2023-02-08T14:16:45;6.72;;;4.03;;
46765;SDS011;32527;51.986;5.842;2023-02-08T14:19:29;7.70;;;4.47;;
46765;SDS011;32527;51.986;5.842;2023-02-08T14:22:04;8.50;;;3.97;;
46765;SDS011;32527;51.986;5.842;2023-02-08T14:27:26;7.95;;;4.40;;
46765;SDS011;32527;51.986;5.842;2023-02-08T14:30:04;7.80;;;4.22;;
46765;SDS011;32527;51.986;5.842;2023-02-08T14:32:34;9.38;;;4.47;;
46765;SDS011;32527;51.986;5.842;2023-02-08T14:35:04;8.73;;;4.47;;
46765;SDS011;32527;51.986;5.842;2023-02-08T14:37:34;10.63;;;3.85;;
46765;SDS011;32527;51.986;5.842;2023-02-08T14:45:44;8.63;;;4.20;;
46765;SDS011;32527;51.986;5.842;2023-02-08T14:51:28;11.30;;;4.47;;
46765;SDS011;32527;51.986;5.842;2023-02-08T14:58:42;7.07;;;3.83;;
46765;SDS011;32527;51.986;5.842;2023-02-08T15:03:55;9.32;;;3.67;;
46765;SDS011;32527;51.986;5.842;2023-02-08T15:09:26;10.07;;;4.38;;
46765;SDS011;32527;51.986;5.842;2023-02-08T15:11:58;7.70;;;4.15;;
46765;SDS011;32527;51.986;5.842;2023-02-08T15:14:29;8.88;;;4.10;;
46765;SDS011;32527;51.986;5.842;2023-02-08T15:16:57;9.70;;;4.40;;
46765;SDS011;32527;51.986;5.842;2023-02-08T15:25:12;7.40;;;3.92;;
46765;SDS011;32527;51.986;5.842;2023-02-08T15:28:01;6.32;;;3.72;;
46765;SDS011;32527;51.986;5.842;2023-02-08T15:30:54;8.18;;;3.80;;
46765;SDS011;32527;51.986;5.842;2023-02-08T15:33:26;7.72;;;4.38;;
46765;SDS011;32527;51.986;5.842;2023-02-08T15:35:57;8.90;;;4.20;;
46765;SDS011;32527;51.986;5.842;2023-02-08T15:38:24;11.18;;;3.95;;
46765;SDS011;32527;51.986;5.842;2023-02-08T15:40:58;7.38;;;4.03;;
46765;SDS011;32527;51.986;5.842;2023-02-08T15:43:31;5.45;;;3.72;;
46765;SDS011;32527;51.986;5.842;2023-02-08T15:45:58;8.38;;;4.43;;
46765;SDS011;32527;51.986;5.842;2023-02-08T15:48:26;7.05;;;4.00;;
46765;SDS011;32527;51.986;5.842;2023-02-08T15:50:53;9.35;;;4.80;;
46765;SDS011;32527;51.986;5.842;2023-02-08T15:53:19;9.57;;;4.70;;
46765;SDS011;32527;51.986;5.842;2023-02-08T15:55:50;10.10;;;5.25;;
46765;SDS011;32527;51.986;5.842;2023-02-08T16:00:57;7.80;;;4.43;;
46765;SDS011;32527;51.986;5.842;2023-02-08T16:03:25;7.75;;;4.40;;
46765;SDS011;32527;51.986;5.842;2023-02-08T16:05:59;9.38;;;4.70;;
46765;SDS011;32527;51.986;5.842;2023-02-08T16:08:28;9.73;;;4.63;;
46765;SDS011;32527;51.986;5.842;2023-02-08T16:10:59;10.98;;;4.82;;
46765;SDS011;32527;51.986;5.842;2023-02-08T16:13:29;8.35;;;4.63;;
46765;SDS011;32527;51.986;5.842;2023-02-08T16:16:12;9.20;;;4.68;;
46765;SDS011;32527;51.986;5.842;2023-02-08T16:23:56;8.38;;;4.10;;
46765;SDS011;32527;51.986;5.842;2023-02-08T16:26:33;11.18;;;5.15;;
46765;SDS011;32527;51.986;5.842;2023-02-08T16:29:05;9.77;;;5.95;;
46765;SDS011;32527;51.986;5.842;2023-02-08T16:31:41;8.70;;;4.80;;
46765;SDS011;32527;51.986;5.842;2023-02-08T16:34:17;10.82;;;5.15;;
46765;SDS011;32527;51.986;5.842;2023-02-08T16:36:48;13.05;;;5.32;;
46765;SDS011;32527;51.986;5.842;2023-02-08T16:44:26;11.18;;;5.47;;
46765;SDS011;32527;51.986;5.842;2023-02-08T16:46:54;11.23;;;6.20;;
46765;SDS011;32527;51.986;5.842;2023-02-08T16:49:22;15.65;;;6.00;;
46765;SDS011;32527;51.986;5.842;2023-02-08T16:51:47;11.90;;;5.15;;
46765;SDS011;32527;51.986;5.842;2023-02-08T16:54:17;11.38;;;5.80;;
46765;SDS011;32527;51.986;5.842;2023-02-08T16:56:45;10.20;;;5.35;;
46765;SDS011;32527;51.986;5.842;2023-02-08T16:59:13;10.85;;;6.35;;
46765;SDS011;32527;51.986;5.842;2023-02-08T17:01:40;12.18;;;5.63;;
46765;SDS011;32527;51.986;5.842;2023-02-08T17:04:10;12.18;;;5.68;;
46765;SDS011;32527;51.986;5.842;2023-02-08T17:06:36;11.27;;;6.10;;
46765;SDS011;32527;51.986;5.842;2023-02-08T17:09:04;11.65;;;6.40;;
46765;SDS011;32527;51.986;5.842;2023-02-08T17:11:32;10.98;;;6.15;;
46765;SDS011;32527;51.986;5.842;2023-02-08T17:13:58;11.05;;;5.93;;
46765;SDS011;32527;51.986;5.842;2023-02-08T17:16:26;11.55;;;5.80;;
46765;SDS011;32527;51.986;5.842;2023-02-08T17:18:53;12.85;;;5.70;;
46765;SDS011;32527;51.986;5.842;2023-02-08T17:21:19;14.13;;;5.95;;
46765;SDS011;32527;51.986;5.842;2023-02-08T17:23:45;11.80;;;6.32;;
46765;SDS011;32527;51.986;5.842;2023-02-08T17:26:15;12.32;;;5.68;;
46765;SDS011;32527;51.986;5.842;2023-02-08T17:28:44;11.32;;;6.13;;
46765;SDS011;32527;51.986;5.842;2023-02-08T17:31:11;14.73;;;6.32;;